Time;durP1;ratioP1;P1;durP2;ratioP2;P2;SDS_P1;SDS_P2;PMS_P1;PMS_P2;Temp;Humidity;BMP_temperature;BMP_pressure;BME280_temperature;BME280_humidity;BME280_pressure;Samples;Min_cycle;Max_cycle;Signal;HPM_P1;HPM_P2
2022/08/01 00:05:06;;;;;;;8.20;5.97;;;;;;;;;;4230772;82;28496;-85
2022/08/01 00:11:08;;;;;;;9.58;6.08;;;;;;;;;;4270489;82;28487;-88
2022/08/01 00:17:09;;;;;;;10.63;5.85;;;;;;;;;;4287595;82;28516;-86
2022/08/01 00:23:10;;;;;;;8.83;5.92;;;;;;;;;;4252208;84;28516;-86
2022/08/01 00:29:11;;;;;;;10.05;6.37;;;;;;;;;;4241052;82;28489;-86
2022/08/01 00:35:13;;;;;;;9.28;5.55;;;;;;;;;;4249893;83;28533;-86
2022/08/01 00:41:14;;;;;;;8.45;5.70;;;;;;;;;;4227200;82;28449;-86
2022/08/01 00:47:15;;;;;;;8.58;5.75;;;;;;;;;;4251901;82;28469;-85
2022/08/01 00:53:15;;;;;;;9.28;5.22;;;;;;;;;;4252378;82;28524;-85
2022/08/01 00:59:21;;;;;;;7.20;5.53;;;;;;;;;;4248786;82;28527;-85
2022/08/01 01:05:22;;;;;;;6.83;4.60;;;;;;;;;;4252340;83;28532;-84
2022/08/01 01:11:28;;;;;;;7.75;5.10;;;;;;;;;;4230619;82;28464;-85
2022/08/01 01:17:30;;;;;;;8.97;5.30;;;;;;;;;;4238099;82;28564;-86
2022/08/01 01:23:50;;;;;;;7.05;5.12;;;;;;;;;;4250708;83;28560;-86
2022/08/01 01:29:52;;;;;;;7.92;4.90;;;;;;;;;;4219537;82;28547;-85
2022/08/01 01:35:55;;;;;;;7.45;4.28;;;;;;;;;;4242891;82;28472;-85
2022/08/01 01:41:57;;;;;;;6.83;4.22;;;;;;;;;;4234324;84;28525;-85
2022/08/01 01:47:58;;;;;;;7.58;4.65;;;;;;;;;;4260364;82;28544;-85
2022/08/01 01:54:00;;;;;;;8.00;4.72;;;;;;;;;;4243151;82;28494;-85
2022/08/01 02:00:02;;;;;;;10.08;5.47;;;;;;;;;;4229786;84;28525;-85
2022/08/01 02:06:05;;;;;;;7.75;5.30;;;;;;;;;;4228967;83;28562;-85
2022/08/01 02:12:06;;;;;;;7.80;4.97;;;;;;;;;;4243850;82;28487;-85
2022/08/01 02:18:08;;;;;;;6.03;4.83;;;;;;;;;;4241613;82;28520;-85
2022/08/01 02:24:26;;;;;;;6.83;4.97;;;;;;;;;;4247924;82;28484;-84
2022/08/01 02:30:30;;;;;;;8.70;5.55;;;;;;;;;;4226285;82;28519;-85
2022/08/01 02:36:33;;;;;;;7.72;5.65;;;;;;;;;;4227450;82;28553;-85
2022/08/01 02:42:35;;;;;;;9.25;5.60;;;;;;;;;;4233822;82;28484;-85
2022/08/01 02:48:38;;;;;;;8.60;5.90;;;;;;;;;;4222835;83;28477;-85
2022/08/01 02:54:40;;;;;;;8.28;6.08;;;;;;;;;;4209087;84;28507;-85
2022/08/01 03:00:42;;;;;;;8.95;6.10;;;;;;;;;;4259084;82;28492;-85
2022/08/01 03:06:43;;;;;;;9.48;5.75;;;;;;;;;;4265438;82;28524;-85
2022/08/01 03:12:45;;;;;;;8.08;6.33;;;;;;;;;;4266582;82;28599;-84
2022/08/01 03:18:46;;;;;;;11.65;6.47;;;;;;;;;;4259619;82;28480;-84
2022/08/01 03:24:49;;;;;;;11.38;6.62;;;;;;;;;;4252167;82;28455;-84
2022/08/01 03:30:50;;;;;;;8.90;7.10;;;;;;;;;;4277406;82;28525;-85
2022/08/01 03:37:09;;;;;;;8.75;6.83;;;;;;;;;;4241370;82;28477;-84
2022/08/01 03:43:12;;;;;;;10.68;7.12;;;;;;;;;;4236959;82;28484;-84
2022/08/01 03:49:15;;;;;;;12.05;7.05;;;;;;;;;;4265797;82;28489;-84
2022/08/01 03:55:19;;;;;;;10.03;7.10;;;;;;;;;;4269534;82;28471;-84
2022/08/01 04:01:20;;;;;;;10.48;7.20;;;;;;;;;;4270997;82;28614;-86
2022/08/01 04:07:23;;;;;;;12.55;7.67;;;;;;;;;;4267562;83;28528;-84
2022/08/01 04:13:24;;;;;;;11.93;7.33;;;;;;;;;;4259585;83;28485;-84
2022/08/01 04:19:25;;;;;;;11.75;8.10;;;;;;;;;;4266386;82;28493;-84
2022/08/01 04:25:28;;;;;;;12.90;8.85;;;;;;;;;;4254392;83;28451;-85
2022/08/01 04:31:30;;;;;;;15.90;10.58;;;;;;;;;;4257688;83;28528;-82
2022/08/01 04:37:31;;;;;;;17.82;10.93;;;;;;;;;;4250028;82;28516;-81
2022/08/01 04:43:32;;;;;;;18.55;11.57;;;;;;;;;;4270713;82;28523;-82
2022/08/01 04:49:34;;;;;;;18.12;11.38;;;;;;;;;;4253009;82;28460;-85
2022/08/01 04:55:35;;;;;;;20.08;12.93;;;;;;;;;;4261021;82;28473;-86
2022/08/01 05:01:36;;;;;;;18.50;11.45;;;;;;;;;;4227322;82;28493;-83
2022/08/01 05:07:37;;;;;;;18.57;11.78;;;;;;;;;;4242419;82;28556;-85
2022/08/01 05:13:37;;;;;;;16.52;11.78;;;;;;;;;;4249929;82;28483;-83
2022/08/01 05:19:39;;;;;;;15.60;10.93;;;;;;;;;;4246247;82;28537;-82
2022/08/01 05:25:40;;;;;;;15.88;10.45;;;;;;;;;;4252898;82;28516;-85
